Time;durP1;ratioP1;P1;durP2;ratioP2;P2;SDS_P1;SDS_P2;PMS_P1;PMS_P2;Temp;Humidity;BMP_temperature;BMP_pressure;BME280_temperature;BME280_humidity;BME280_pressure;Samples;Min_cycle;Max_cycle;Signal;HPM_P1;HPM_P2
2022/04/04 00:00:46;;;;;;;11.10;4.77;;;3.00;99.90;;;;;;5084073;28;20051;-73
2022/04/04 00:03:12;;;;;;;9.27;4.40;;;3.00;99.90;;;;;;5110091;27;20085;-73
2022/04/04 00:05:38;;;;;;;7.03;4.53;;;3.00;99.90;;;;;;5113848;28;20285;-72
2022/04/04 00:08:05;;;;;;;12.43;4.60;;;2.90;99.90;;;;;;5098512;28;20301;-73
2022/04/04 00:10:31;;;;;;;9.83;4.10;;;2.90;99.90;;;;;;5098678;28;20044;-74
2022/04/04 00:12:57;;;;;;;7.23;4.10;;;2.90;99.90;;;;;;5105544;27;20739;-73
2022/04/04 00:15:23;;;;;;;9.70;4.27;;;2.90;99.90;;;;;;5114040;28;20444;-73
2022/04/04 00:17:50;;;;;;;9.23;4.50;;;2.90;99.90;;;;;;5120251;28;20047;-73
2022/04/04 00:20:16;;;;;;;8.03;4.40;;;3.00;99.90;;;;;;5093170;28;20457;-73
2022/04/04 00:22:42;;;;;;;7.80;4.50;;;2.90;99.90;;;;;;5093827;28;20340;-73
2022/04/04 00:25:08;;;;;;;6.67;4.23;;;3.00;99.90;;;;;;5093558;28;20051;-74
2022/04/04 00:27:34;;;;;;;9.03;3.93;;;2.90;99.90;;;;;;5103584;28;20039;-73
2022/04/04 00:30:00;;;;;;;4.87;3.83;;;3.00;99.90;;;;;;5093065;28;20293;-73
2022/04/04 00:32:27;;;;;;;7.63;4.60;;;3.00;99.90;;;;;;5088873;28;20798;-73
2022/04/04 00:34:54;;;;;;;7.63;4.57;;;3.00;99.90;;;;;;5093248;28;20308;-74
2022/04/04 00:37:20;;;;;;;6.83;4.83;;;3.00;99.90;;;;;;5098418;28;20461;-73
2022/04/04 00:39:46;;;;;;;5.40;4.33;;;3.00;99.90;;;;;;5113219;28;20300;-73
2022/04/04 00:42:14;;;;;;;5.17;4.13;;;3.00;99.90;;;;;;5109303;28;20503;-73
2022/04/04 00:44:40;;;;;;;9.33;4.10;;;3.00;99.90;;;;;;5096157;28;20039;-73
2022/04/04 00:47:07;;;;;;;10.13;4.40;;;3.00;99.90;;;;;;5111916;27;20342;-73
2022/04/04 00:49:33;;;;;;;8.03;4.60;;;3.00;99.90;;;;;;5096570;28;20074;-73
2022/04/04 00:52:01;;;;;;;6.57;4.37;;;3.00;99.90;;;;;;5101966;27;20329;-73
2022/04/04 00:54:26;;;;;;;8.83;4.83;;;3.00;99.90;;;;;;5096704;28;20054;-73
2022/04/04 00:56:54;;;;;;;8.63;4.40;;;3.00;99.90;;;;;;5096884;28;20372;-73
2022/04/04 00:59:21;;;;;;;9.83;4.87;;;3.00;99.90;;;;;;5111011;27;20043;-73
2022/04/04 01:01:47;;;;;;;8.30;5.00;;;3.10;99.90;;;;;;5101961;28;20354;-73
2022/04/04 01:04:13;;;;;;;8.40;5.27;;;3.10;99.90;;;;;;5096927;27;20325;-72
2022/04/04 01:06:39;;;;;;;7.77;4.90;;;3.20;99.90;;;;;;5111627;28;20042;-73
2022/04/04 01:09:07;;;;;;;11.53;5.37;;;3.20;99.90;;;;;;5095743;27;20296;-72
2022/04/04 01:11:34;;;;;;;8.10;5.80;;;3.30;99.90;;;;;;5114109;27;20309;-74
2022/04/04 01:14:00;;;;;;;11.63;5.87;;;3.30;99.90;;;;;;5129376;27;20319;-73
2022/04/04 01:16:26;;;;;;;12.17;6.13;;;3.40;99.90;;;;;;5087143;28;20861;-73
2022/04/04 01:18:51;;;;;;;9.47;6.57;;;3.40;99.90;;;;;;5116512;27;20051;-73
2022/04/04 01:21:19;;;;;;;12.30;7.33;;;3.40;99.90;;;;;;5116144;27;20462;-73
2022/04/04 01:23:46;;;;;;;13.47;7.13;;;3.50;99.90;;;;;;5096301;28;20108;-73
2022/04/04 01:26:14;;;;;;;12.20;7.83;;;3.60;99.90;;;;;;5104546;27;20375;-73
2022/04/04 01:28:40;;;;;;;11.20;7.57;;;3.60;99.90;;;;;;5096931;28;20722;-72
2022/04/04 01:31:07;;;;;;;12.03;7.87;;;3.60;99.90;;;;;;5104142;27;20383;-73
2022/04/04 01:33:33;;;;;;;12.13;8.40;;;3.70;99.90;;;;;;5101215;28;20396;-72
2022/04/04 01:35:58;;;;;;;14.37;9.10;;;3.70;99.90;;;;;;5116131;27;20356;-73
2022/04/04 01:38:25;;;;;;;14.17;8.87;;;3.80;99.90;;;;;;5083306;28;20074;-73
2022/04/04 01:40:52;;;;;;;15.20;10.77;;;3.80;99.90;;;;;;5095611;28;20043;-73
2022/04/04 01:43:19;;;;;;;18.97;10.30;;;3.80;99.90;;;;;;5080285;28;20304;-72
2022/04/04 01:48:34;;;;;;;15.30;10.48;;;3.90;99.90;;;;;;5110486;27;20062;-73
2022/04/04 01:51:00;;;;;;;14.30;10.30;;;3.90;99.90;;;;;;5103676;28;20039;-73
2022/04/04 01:53:25;;;;;;;15.20;10.50;;;3.90;99.90;;;;;;5111655;27;20061;-73
2022/04/04 01:55:51;;;;;;;13.57;10.50;;;3.90;99.90;;;;;;5115578;28;20047;-74
2022/04/04 01:58:19;;;;;;;14.63;10.53;;;3.90;99.90;;;;;;5115491;27;20046;-73
2022/04/04 02:00:45;;;;;;;13.40;10.07;;;3.90;99.90;;;;;;5115462;27;20051;-74
2022/04/04 02:03:11;;;;;;;13.40;10.37;;;3.90;99.90;;;;;;5109206;27;20052;-73
2022/04/04 02:05:37;;;;;;;13.57;10.47;;;4.00;99.90;;;;;;5114095;27;20047;-73
2022/04/04 02:08:03;;;;;;;16.93;10.73;;;4.00;99.90;;;;;;5106154;27;20057;-72
2022/04/04 02:10:29;;;;;;;12.93;10.23;;;4.00;99.90;;;;;;5101476;28;20050;-73
2022/04/04 02:12:55;;;;;;;17.53;10.60;;;4.00;99.90;;;;;;5105655;27;20051;-73
2022/04/04 02:15:22;;;;;;;17.23;10.50;;;4.00;99.90;;;;;;5095872;28;20390;-72
2022/04/04 02:17:48;;;;;;;16.17;10.67;;;4.00;99.90;;;;;;5098489;27;20051;-73
2022/04/04 02:20:14;;;;;;;17.23;10.57;;;4.10;99.90;;;;;;5115287;27;20472;-73
2022/04/04 02:22:40;;;;;;;18.93;10.50;;;4.10;99.90;;;;;;5108574;27;20050;-73
2022/04/04 02:25:07;;;;;;;13.10;9.53;;;4.10;99.90;;;;;;5112304;27;20389;-76
2022/04/04 02:27:32;;;;;;;15.70;10.50;;;4.10;99.90;;;;;;5111850;28;20059;-75
2022/04/04 02:30:00;;;;;;;15.30;10.47;;;4.20;99.90;;;;;;5115629;27;20035;-73
2022/04/04 02:32:27;;;;;;;13.93;10.37;;;4.20;99.90;;;;;;5095751;28;20056;-73
2022/04/04 02:34:53;;;;;;;15.83;11.60;;;4.30;99.90;;;;;;5111385;27;20133;-74
2022/04/04 02:37:18;;;;;;;14.23;10.37;;;4.30;99.90;;;;;;5106648;27;20481;-74
2022/04/04 02:39:45;;;;;;;17.83;11.37;;;4.30;99.90;;;;;;5102682;28;20066;-72
2022/04/04 02:42:11;;;;;;;18.13;11.20;;;4.30;99.90;;;;;;5104631;27;20083;-74
2022/04/04 02:44:37;;;;;;;17.27;10.90;;;4.40;99.90;;;;;;5095132;27;20488;-72
2022/04/04 02:47:03;;;;;;;17.53;12.63;;;4.40;99.90;;;;;;5129657;27;20046;-73
2022/04/04 02:49:30;;;;;;;15.07;11.30;;;4.40;99.90;;;;;;5114780;27;20031;-73
2022/04/04 02:51:57;;;;;;;20.13;12.10;;;4.40;99.90;;;;;;5111967;28;20039;-73
2022/04/04 02:54:23;;;;;;;18.30;12.57;;;4.50;99.90;;;;;;5096282;28;20301;-75
2022/04/04 02:56:49;;;;;;;20.87;13.03;;;4.50;99.90;;;;;;5103274;28;20123;-74
2022/04/04 02:59:15;;;;;;;15.87;12.33;;;4.50;99.90;;;;;;5112560;27;20039;-73
2022/04/04 03:01:48;;;;;;;17.17;12.30;;;4.50;99.90;;;;;;5115239;27;20359;-73
2022/04/04 03:04:14;;;;;;;19.67;11.90;;;4.60;99.90;;;;;;5094854;28;20061;-72
2022/04/04 03:06:44;;;;;;;20.47;12.37;;;4.60;99.90;;;;;;5113737;28;20039;-73
2022/04/04 03:09:10;;;;;;;22.07;11.90;;;4.60;99.90;;;;;;5094118;28;20040;-73
2022/04/04 03:11:36;;;;;;;20.07;12.00;;;4.70;99.90;;;;;;5095513;27;20297;-75
2022/04/04 03:14:02;;;;;;;20.17;11.40;;;4.70;99.90;;;;;;5100282;28;20039;-73
2022/04/04 03:16:28;;;;;;;20.00;12.43;;;4.70;99.90;;;;;;5114972;27;20043;-74
2022/04/04 03:18:54;;;;;;;18.33;12.10;;;4.70;99.90;;;;;;5111289;28;20723;-73
2022/04/04 03:21:19;;;;;;;22.47;13.03;;;4.80;99.90;;;;;;5106336;28;20053;-74
2022/04/04 03:23:47;;;;;;;22.03;13.17;;;4.80;99.90;;;;;;5110218;27;20043;-75
2022/04/04 03:26:13;;;;;;;22.93;12.63;;;4.80;99.90;;;;;;5103553;27;20039;-74
2022/04/04 03:28:39;;;;;;;21.90;12.23;;;4.80;99.90;;;;;;5113091;27;20304;-73
2022/04/04 03:31:05;;;;;;;20.13;12.80;;;4.90;99.90;;;;;;5113317;27;20053;-74
2022/04/04 03:33:31;;;;;;;22.00;12.47;;;4.90;99.90;;;;;;5094315;28;20082;-73
2022/04/04 03:35:58;;;;;;;21.17;13.17;;;4.90;99.90;;;;;;5112915;27;20465;-76
2022/04/04 03:38:24;;;;;;;20.40;12.03;;;4.90;99.90;;;;;;5114997;28;20043;-73
2022/04/04 03:40:52;;;;;;;19.40;12.70;;;5.00;99.90;;;;;;5097244;28;20043;-76
2022/04/04 03:43:18;;;;;;;18.40;12.07;;;5.00;99.90;;;;;;5100801;28;20051;-73
2022/04/04 03:45:43;;;;;;;23.33;11.73;;;5.00;99.90;;;;;;5101470;28;20489;-73
2022/04/04 03:48:09;;;;;;;20.60;12.47;;;5.10;99.90;;;;;;5112242;28;20038;-73
2022/04/04 03:50:35;;;;;;;17.90;11.60;;;5.10;99.90;;;;;;5100255;28;20040;-73
2022/04/04 03:53:02;;;;;;;15.80;11.20;;;5.10;99.90;;;;;;5095754;28;20051;-73
2022/04/04 03:55:30;;;;;;;16.63;11.30;;;5.10;99.90;;;;;;5106697;28;20478;-73
2022/04/04 03:57:58;;;;;;;18.00;11.70;;;5.10;99.90;;;;;;5116052;28;20039;-74
2022/04/04 04:00:24;;;;;;;18.37;11.03;;;5.20;99.90;;;;;;5087653;28;20093;-74
2022/04/04 04:02:50;;;;;;;20.93;11.40;;;5.20;99.90;;;;;;5103276;28;20046;-73
2022/04/04 04:05:16;;;;;;;19.83;11.30;;;5.20;99.90;;;;;;5108123;28;20122;-75
2022/04/04 04:07:43;;;;;;;17.43;10.57;;;5.20;99.90;;;;;;5094306;28;20466;-73
2022/04/04 04:10:12;;;;;;;17.73;11.90;;;5.20;99.90;;;;;;5100295;28;20078;-75
2022/04/04 04:12:39;;;;;;;20.07;11.70;;;5.20;99.90;;;;;;5090025;28;20049;-74
2022/04/04 04:15:07;;;;;;;18.17;11.13;;;5.20;99.90;;;;;;5099277;28;20104;-75
2022/04/04 04:17:33;;;;;;;13.90;11.20;;;5.20;99.90;;;;;;5114607;28;20096;-74
2022/04/04 04:22:45;;;;;;;16.92;10.93;;;5.20;99.90;;;;;;5105167;28;20496;-76
2022/04/04 04:25:11;;;;;;;17.20;11.10;;;5.20;99.90;;;;;;5104127;27;20046;-76
2022/04/04 04:27:37;;;;;;;16.00;10.70;;;5.20;99.90;;;;;;5097804;28;20051;-73
2022/04/04 04:30:04;;;;;;;14.53;10.83;;;5.20;99.90;;;;;;5100532;27;20047;-73
2022/04/04 04:32:31;;;;;;;15.50;10.83;;;5.20;99.90;;;;;;5098254;28;20508;-74
2022/04/04 04:34:56;;;;;;;16.40;11.20;;;5.20;99.90;;;;;;5100488;27;20088;-74
2022/04/04 04:37:22;;;;;;;19.13;11.27;;;5.20;99.90;;;;;;5103531;28;20459;-76
2022/04/04 04:39:49;;;;;;;19.47;11.17;;;5.20;99.90;;;;;;5115375;27;20051;-75
2022/04/04 04:42:14;;;;;;;17.50;11.30;;;5.20;99.90;;;;;;5101739;27;20035;-74
2022/04/04 04:44:41;;;;;;;19.17;12.63;;;5.20;99.90;;;;;;5117721;27;20043;-76
2022/04/04 04:47:08;;;;;;;21.27;12.77;;;5.20;99.90;;;;;;5085904;27;20450;-73
2022/04/04 04:49:35;;;;;;;16.90;11.07;;;5.20;99.90;;;;;;5104190;27;20059;-74
2022/04/04 04:52:01;;;;;;;16.60;11.67;;;5.20;99.90;;;;;;5102410;27;20058;-75
2022/04/04 04:54:27;;;;;;;20.20;11.30;;;5.20;99.90;;;;;;5108765;27;20059;-75
2022/04/04 04:56:53;;;;;;;17.07;11.67;;;5.20;99.90;;;;;;5114401;27;20043;-75
2022/04/04 04:59:19;;;;;;;21.77;12.27;;;5.20;99.90;;;;;;5118612;27;20047;-75
2022/04/04 05:01:45;;;;;;;18.67;11.77;;;5.20;99.90;;;;;;5094341;28;20054;-74
2022/04/04 05:04:11;;;;;;;16.63;11.33;;;5.20;99.90;;;;;;5117393;27;20091;-75
2022/04/04 05:06:38;;;;;;;20.73;12.00;;;5.20;99.90;;;;;;5110752;27;20050;-75
2022/04/04 05:09:04;;;;;;;16.43;11.60;;;5.20;99.90;;;;;;5115041;27;20085;-73
2022/04/04 05:11:29;;;;;;;17.80;11.63;;;5.20;99.90;;;;;;5107822;27;20071;-75
2022/04/04 05:13:55;;;;;;;16.97;11.50;;;5.20;99.90;;;;;;5115783;27;20051;-74
2022/04/04 05:16:28;;;;;;;19.07;11.47;;;5.20;99.90;;;;;;5109860;27;20082;-73
2022/04/04 05:18:53;;;;;;;16.43;11.63;;;5.30;99.90;;;;;;5114620;27;20500;-74
2022/04/04 05:21:19;;;;;;;21.40;11.77;;;5.20;99.90;;;;;;5111177;27;20050;-74
2022/04/04 05:23:47;;;;;;;19.60;11.97;;;5.30;99.90;;;;;;5097010;27;20055;-75
2022/04/04 05:26:13;;;;;;;18.60;11.97;;;5.20;99.90;;;;;;5113223;27;20051;-75
2022/04/04 05:28:39;;;;;;;19.37;11.40;;;5.20;99.90;;;;;;5114231;27;20051;-74
2022/04/04 05:31:04;;;;;;;19.30;11.90;;;5.30;99.90;;;;;;5105497;27;20541;-74
2022/04/04 05:33:30;;;;;;;18.50;12.10;;;5.30;99.90;;;;;;5105528;27;20412;-73
2022/04/04 05:35:56;;;;;;;24.30;12.00;;;5.30;99.90;;;;;;5112103;28;20035;-74
2022/04/04 05:38:22;;;;;;;18.03;12.10;;;5.30;99.90;;;;;;5089800;27;20055;-76
2022/04/04 05:40:49;;;;;;;18.13;11.47;;;5.40;99.90;;;;;;5108638;27;20619;-74
2022/04/04 05:43:15;;;;;;;15.57;10.03;;;5.40;99.90;;;;;;5103142;28;20134;-75
2022/04/04 05:45:40;;;;;;;14.63;10.67;;;5.40;99.90;;;;;;5105864;27;20119;-73
2022/04/04 05:48:07;;;;;;;17.53;11.73;;;5.30;99.90;;;;;;5109123;27;20051;-75
2022/04/04 05:50:33;;;;;;;15.53;10.97;;;5.30;99.90;;;;;;5099097;28;20044;-77
2022/04/04 05:52:58;;;;;;;17.87;11.37;;;5.40;99.90;;;;;;5117921;27;20054;-75
2022/04/04 05:55:25;;;;;;;16.60;10.93;;;5.40;99.90;;;;;;5121617;27;20530;-76
2022/04/04 05:57:52;;;;;;;16.57;10.53;;;5.40;99.90;;;;;;5111924;28;20043;-76
2022/04/04 06:00:18;;;;;;;17.70;11.07;;;5.40;99.90;;;;;;5103118;28;20355;-75
2022/04/04 06:02:45;;;;;;;15.10;11.33;;;5.40;99.90;;;;;;5113797;27;20078;-74
2022/04/04 06:05:12;;;;;;;16.63;11.20;;;5.40;99.90;;;;;;5109843;27;20092;-74
2022/04/04 06:07:38;;;;;;;17.63;10.67;;;5.30;99.90;;;;;;5111106;28;20040;-76
2022/04/04 06:10:07;;;;;;;19.07;11.30;;;5.30;99.90;;;;;;5105888;27;20034;-75
2022/04/04 06:12:34;;;;;;;19.97;10.60;;;5.30;99.90;;;;;;5105667;28;20485;-76
2022/04/04 06:15:01;;;;;;;18.83;10.97;;;5.30;99.90;;;;;;5087976;28;20090;-77
2022/04/04 06:17:27;;;;;;;18.13;11.27;;;5.20;99.90;;;;;;5105082;28;20327;-76
2022/04/04 06:19:54;;;;;;;20.63;11.30;;;5.20;99.90;;;;;;5101989;28;20035;-74
2022/04/04 06:22:22;;;;;;;16.27;10.80;;;5.20;99.90;;;;;;5109312;27;20047;-76
2022/04/04 06:24:48;;;;;;;17.50;10.87;;;5.20;99.90;;;;;;5105301;28;20039;-75
2022/04/04 06:27:15;;;;;;;18.60;11.03;;;5.20;99.90;;;;;;5106780;27;21250;-74
2022/04/04 06:29:41;;;;;;;15.60;11.07;;;5.20;99.90;;;;;;5107092;27;20046;-75
2022/04/04 06:32:11;;;;;;;16.83;10.77;;;5.20;99.90;;;;;;5113474;27;20035;-74
2022/04/04 06:34:37;;;;;;;17.53;10.87;;;5.20;99.90;;;;;;5095139;27;20039;-74
2022/04/04 06:37:04;;;;;;;17.23;11.40;;;5.20;99.90;;;;;;5111516;27;20096;-74
2022/04/04 06:39:30;;;;;;;15.87;10.70;;;5.20;99.90;;;;;;5111409;27;20110;-74
2022/04/04 06:41:56;;;;;;;20.20;10.83;;;5.10;99.90;;;;;;5097601;27;20138;-76
2022/04/04 06:44:22;;;;;;;16.03;11.10;;;5.20;99.90;;;;;;5123809;27;20043;-77
2022/04/04 06:46:48;;;;;;;17.77;12.50;;;5.10;99.90;;;;;;5110825;27;20127;-73
2022/04/04 06:49:15;;;;;;;18.30;11.53;;;5.10;99.90;;;;;;5106893;27;20546;-75
2022/04/04 06:51:40;;;;;;;17.80;12.77;;;5.20;99.90;;;;;;5109380;27;20063;-77
2022/04/04 06:54:07;;;;;;;18.60;11.83;;;5.10;99.90;;;;;;5089265;27;20043;-73
2022/04/04 06:56:34;;;;;;;21.13;12.07;;;5.10;99.90;;;;;;5115328;27;20134;-74
2022/04/04 06:59:00;;;;;;;20.93;12.87;;;5.10;99.90;;;;;;5096652;27;20035;-76
2022/04/04 07:01:26;;;;;;;18.03;12.20;;;5.10;99.90;;;;;;5107790;27;20051;-74
2022/04/04 07:03:51;;;;;;;19.13;12.80;;;5.10;99.90;;;;;;5109990;27;20056;-74
2022/04/04 07:06:18;;;;;;;17.80;13.20;;;5.10;99.90;;;;;;5108014;27;20046;-75
2022/04/04 07:08:44;;;;;;;20.87;13.60;;;5.10;99.90;;;;;;5088012;27;20115;-73
2022/04/04 07:11:10;;;;;;;17.73;13.30;;;5.00;99.90;;;;;;5107776;27;20077;-73
2022/04/04 07:13:36;;;;;;;27.53;14.17;;;5.10;99.90;;;;;;5099547;28;20089;-74
2022/04/04 07:16:02;;;;;;;22.10;13.43;;;5.10;99.90;;;;;;5089937;27;20051;-74
2022/04/04 07:18:28;;;;;;;20.43;13.90;;;5.10;99.90;;;;;;5104755;27;20072;-73
2022/04/04 07:20:53;;;;;;;20.70;14.20;;;5.10;99.90;;;;;;5099520;28;20485;-73
2022/04/04 07:23:21;;;;;;;21.70;13.73;;;5.10;99.90;;;;;;5116229;27;20576;-74
2022/04/04 07:25:47;;;;;;;20.83;13.57;;;5.10;99.90;;;;;;5114847;27;20047;-73
2022/04/04 07:28:14;;;;;;;21.83;14.77;;;5.20;99.90;;;;;;5113941;27;20408;-73
2022/04/04 07:30:40;;;;;;;22.27;14.27;;;5.20;99.90;;;;;;5100455;28;20035;-76
2022/04/04 07:33:08;;;;;;;23.70;15.00;;;5.20;99.90;;;;;;5098352;27;20068;-74
2022/04/04 07:35:34;;;;;;;21.93;15.00;;;5.20;99.90;;;;;;5127710;27;20456;-75
2022/04/04 07:38:00;;;;;;;25.90;15.80;;;5.20;99.90;;;;;;5100589;28;20453;-75
2022/04/04 07:40:28;;;;;;;22.07;14.43;;;5.10;99.90;;;;;;5090647;28;20100;-76
2022/04/04 07:42:54;;;;;;;27.80;15.23;;;5.20;99.90;;;;;;5107188;28;20082;-74
2022/04/04 07:45:20;;;;;;;24.83;16.73;;;5.20;99.90;;;;;;5111768;28;20075;-74
2022/04/04 07:47:47;;;;;;;20.40;15.93;;;5.10;99.90;;;;;;5110686;28;20071;-75
2022/04/04 07:50:14;;;;;;;23.60;17.50;;;5.20;99.90;;;;;;5108179;28;20043;-76
2022/04/04 07:52:40;;;;;;;23.07;17.67;;;5.20;99.90;;;;;;5109713;28;20107;-75
2022/04/04 07:55:07;;;;;;;27.67;18.30;;;5.10;99.90;;;;;;5097331;28;20124;-75
2022/04/04 07:57:35;;;;;;;26.67;19.03;;;5.10;99.90;;;;;;5102769;27;20039;-74
2022/04/04 08:00:00;;;;;;;25.63;19.33;;;5.10;99.90;;;;;;5112113;27;20082;-78
2022/04/04 08:02:26;;;;;;;26.53;19.03;;;5.10;99.90;;;;;;5100276;27;20070;-75
2022/04/04 08:04:52;;;;;;;27.03;20.60;;;5.10;99.90;;;;;;5113299;27;20083;-75
2022/04/04 08:07:19;;;;;;;27.67;20.27;;;5.10;99.90;;;;;;5117710;27;20051;-74
2022/04/04 08:09:46;;;;;;;29.50;21.03;;;5.10;99.90;;;;;;5091393;27;20084;-74
2022/04/04 08:12:12;;;;;;;28.17;21.23;;;5.10;99.90;;;;;;5108226;27;20504;-73
2022/04/04 08:14:39;;;;;;;24.80;19.67;;;5.10;99.90;;;;;;5087127;27;20090;-74
2022/04/04 08:17:06;;;;;;;28.00;20.70;;;5.20;99.90;;;;;;5083119;27;20575;-74
2022/04/04 08:19:32;;;;;;;32.47;21.47;;;5.20;99.90;;;;;;5118934;27;20091;-75
2022/04/04 08:21:58;;;;;;;25.30;20.13;;;5.20;99.90;;;;;;5088516;28;20057;-76
2022/04/04 08:24:24;;;;;;;31.63;22.27;;;5.20;99.90;;;;;;5103998;27;20055;-76
2022/04/04 08:26:50;;;;;;;27.97;20.67;;;5.30;99.90;;;;;;5093906;27;20043;-73
2022/04/04 08:29:16;;;;;;;30.13;21.33;;;5.30;99.90;;;;;;5085587;27;20421;-74
2022/04/04 08:31:43;;;;;;;25.83;21.60;;;5.30;99.90;;;;;;5109525;27;20039;-75
2022/04/04 08:34:10;;;;;;;27.50;20.37;;;5.40;99.90;;;;;;5097196;27;20058;-74
2022/04/04 08:36:35;;;;;;;30.03;21.63;;;5.40;99.90;;;;;;5108987;28;20100;-76
2022/04/04 08:39:02;;;;;;;27.27;19.73;;;5.50;99.90;;;;;;5105522;27;20295;-74
2022/04/04 08:41:31;;;;;;;25.23;16.90;;;5.50;99.90;;;;;;5107152;27;20039;-77
2022/04/04 08:43:59;;;;;;;20.27;17.53;;;5.50;99.90;;;;;;5113945;27;20419;-75
2022/04/04 08:46:26;;;;;;;24.33;18.10;;;5.50;99.90;;;;;;5092228;27;20365;-74
2022/04/04 08:48:55;;;;;;;23.47;18.77;;;5.50;99.90;;;;;;5105289;27;20078;-75
2022/04/04 08:51:22;;;;;;;21.00;16.40;;;5.50;99.90;;;;;;5089562;27;20449;-75
2022/04/04 08:53:48;;;;;;;25.70;16.30;;;5.50;99.90;;;;;;5083183;27;20122;-76
2022/04/04 08:56:13;;;;;;;19.17;13.93;;;5.50;99.90;;;;;;5107000;27;20134;-75
2022/04/04 08:58:39;;;;;;;19.33;14.40;;;5.50;99.90;;;;;;5126686;27;20038;-75
2022/04/04 09:01:05;;;;;;;17.70;12.90;;;5.60;99.90;;;;;;5106449;27;20122;-74
2022/04/04 09:03:31;;;;;;;16.30;12.10;;;5.60;99.90;;;;;;5105606;27;20052;-76
2022/04/04 09:05:59;;;;;;;13.60;10.87;;;5.60;99.90;;;;;;5102326;27;20897;-75
2022/04/04 09:08:28;;;;;;;16.60;11.40;;;5.60;99.90;;;;;;5102468;27;20506;-80
2022/04/04 09:10:56;;;;;;;14.70;9.97;;;5.60;99.90;;;;;;5104301;27;20027;-75
2022/04/04 09:13:23;;;;;;;16.40;10.70;;;5.70;99.90;;;;;;5106288;27;20118;-75
2022/04/04 09:15:59;;;;;;;12.47;9.03;;;5.70;99.90;;;;;;5104395;27;20507;-75
2022/04/04 09:18:45;;;;;;;13.07;8.40;;;5.70;99.90;;;;;;5109807;27;20053;-75
2022/04/04 09:21:27;;;;;;;9.60;6.83;;;5.80;99.90;;;;;;5104741;27;20047;-78
2022/04/04 09:23:55;;;;;;;10.30;6.17;;;5.80;99.90;;;;;;5104709;27;20047;-76
2022/04/04 09:26:31;;;;;;;9.43;5.20;;;5.80;99.90;;;;;;5103369;27;20115;-76
2022/04/04 09:28:59;;;;;;;8.17;5.10;;;5.80;99.90;;;;;;5109078;27;20046;-79
2022/04/04 09:31:25;;;;;;;10.97;5.27;;;5.80;99.90;;;;;;5103848;27;20492;-75
2022/04/04 09:33:51;;;;;;;11.57;4.80;;;5.80;99.90;;;;;;5107710;27;20046;-76
2022/04/04 09:36:19;;;;;;;7.40;3.93;;;5.80;99.90;;;;;;5113717;27;20397;-77
2022/04/04 09:38:55;;;;;;;10.23;4.73;;;5.90;99.90;;;;;;5104393;27;20039;-77
2022/04/04 09:41:21;;;;;;;9.37;5.03;;;5.90;99.90;;;;;;5102576;27;20099;-77
2022/04/04 09:43:51;;;;;;;8.47;4.63;;;5.90;99.90;;;;;;5122763;27;20042;-76
2022/04/04 09:46:17;;;;;;;9.50;5.30;;;6.00;99.90;;;;;;5100269;27;21466;-76
2022/04/04 09:49:02;;;;;;;9.13;5.23;;;6.00;99.90;;;;;;5106811;27;20504;-77
2022/04/04 09:51:36;;;;;;;;;;;6.00;99.90;;;;;;5105545;27;20059;-78
2022/04/04 09:54:03;;;;;;;6.93;4.43;;;6.00;99.90;;;;;;5106099;27;20011;-76
2022/04/04 09:56:29;;;;;;;5.73;4.47;;;6.00;99.90;;;;;;5103317;27;20484;-79
2022/04/04 09:58:56;;;;;;;5.47;4.20;;;6.00;99.90;;;;;;5102228;27;20047;-76
2022/04/04 10:01:22;;;;;;;10.00;4.67;;;6.00;99.90;;;;;;5103677;27;20528;-76
2022/04/04 10:03:51;;;;;;;7.13;4.23;;;6.00;99.90;;;;;;5104308;27;20043;-78
2022/04/04 10:06:19;;;;;;;6.07;4.37;;;6.10;99.90;;;;;;5097951;27;20424;-75
2022/04/04 10:08:54;;;;;;;7.70;4.83;;;6.10;99.90;;;;;;5106535;27;20050;-75
2022/04/04 10:11:21;;;;;;;;;;;6.20;99.90;;;;;;5102304;27;20477;-76
2022/04/04 10:13:47;;;;;;;8.57;4.37;;;6.20;99.90;;;;;;5103363;27;20006;-79
2022/04/04 10:16:13;;;;;;;5.50;3.60;;;6.20;99.90;;;;;;5103816;27;20516;-76
2022/04/04 10:18:42;;;;;;;6.77;3.77;;;6.20;99.90;;;;;;5099516;27;20043;-78
2022/04/04 10:21:09;;;;;;;7.73;4.03;;;6.20;99.90;;;;;;5101916;27;20047;-78
2022/04/04 10:23:37;;;;;;;7.97;3.77;;;6.10;99.90;;;;;;5104644;27;20489;-77
2022/04/04 10:26:06;;;;;;;6.50;4.20;;;6.10;99.90;;;;;;5088369;27;20105;-77
2022/04/04 10:28:35;;;;;;;8.67;5.00;;;6.10;99.90;;;;;;5105030;27;20043;-75
2022/04/04 10:31:10;;;;;;;8.57;4.00;;;6.10;99.90;;;;;;5103348;27;20053;-77
2022/04/04 10:33:36;;;;;;;6.07;4.53;;;6.20;99.90;;;;;;5107381;27;20239;-76
2022/04/04 10:36:04;;;;;;;8.73;4.83;;;6.10;99.90;;;;;;5104839;27;20058;-76
2022/04/04 10:38:31;;;;;;;5.37;4.03;;;6.20;99.90;;;;;;5107827;27;20122;-77
2022/04/04 10:40:58;;;;;;;8.27;4.87;;;6.20;99.90;;;;;;5099160;27;20054;-76
2022/04/04 10:43:31;;;;;;;7.50;5.10;;;6.20;99.90;;;;;;5102516;27;20420;-76
2022/04/04 10:45:58;;;;;;;9.30;5.60;;;6.20;99.90;;;;;;5087196;27;20078;-75
2022/04/04 10:48:29;;;;;;;7.17;4.77;;;6.30;99.90;;;;;;5078754;27;20047;-77
2022/04/04 10:51:01;;;;;;;7.63;5.17;;;6.30;99.90;;;;;;5103021;27;20051;-74
2022/04/04 10:53:40;;;;;;;7.70;4.70;;;6.30;99.90;;;;;;5082736;27;20054;-79
2022/04/04 10:56:09;;;;;;;8.00;5.00;;;6.30;99.90;;;;;;5086335;27;20047;-78
2022/04/04 10:58:37;;;;;;;8.13;5.33;;;6.40;99.90;;;;;;5103997;27;20510;-77
2022/04/04 11:01:09;;;;;;;7.60;5.33;;;6.40;99.90;;;;;;5099224;27;20059;-77
2022/04/04 11:03:37;;;;;;;8.50;5.67;;;6.50;99.90;;;;;;5102328;27;20049;-77
2022/04/04 11:09:12;;;;;;;10.63;5.70;;;6.50;99.90;;;;;;5090397;27;20058;-76
2022/04/04 11:11:49;;;;;;;8.20;4.72;;;6.60;99.90;;;;;;5083547;27;20046;-76
2022/04/04 11:14:17;;;;;;;8.40;4.97;;;6.60;99.90;;;;;;5084970;27;20055;-78
2022/04/04 11:17:29;;;;;;;7.20;4.93;;;6.70;99.90;;;;;;5101086;27;20081;-75
2022/04/04 11:20:04;;;;;;;9.70;4.60;;;6.70;99.90;;;;;;5104076;27;20143;-78
2022/04/04 11:22:33;;;;;;;7.30;4.80;;;6.70;99.90;;;;;;5086782;27;20527;-76
2022/04/04 11:25:05;;;;;;;8.93;5.53;;;6.70;99.90;;;;;;5070008;27;20051;-76
2022/04/04 11:27:33;;;;;;;8.57;4.70;;;6.70;99.90;;;;;;5103848;27;20452;-76
2022/04/04 11:30:04;;;;;;;8.93;5.17;;;6.70;99.90;;;;;;5098834;27;20065;-77
2022/04/04 11:32:33;;;;;;;9.13;4.63;;;6.70;99.90;;;;;;5087958;27;20099;-77
2022/04/04 11:35:01;;;;;;;8.00;4.63;;;6.80;99.90;;;;;;5105097;27;20047;-74
2022/04/04 11:37:29;;;;;;;8.50;4.20;;;6.80;99.90;;;;;;5103916;27;20649;-76
2022/04/04 11:40:03;;;;;;;6.73;4.63;;;6.90;99.90;;;;;;5108136;27;20046;-77
2022/04/04 11:42:40;;;;;;;5.00;3.72;;;6.90;99.90;;;;;;5106518;28;20047;-74
2022/04/04 11:45:08;;;;;;;6.50;4.23;;;7.00;99.90;;;;;;5089958;28;20043;-78
2022/04/04 11:47:39;;;;;;;4.97;3.37;;;7.00;99.90;;;;;;5106270;28;20039;-76
2022/04/04 11:50:05;;;;;;;4.73;3.33;;;7.00;99.90;;;;;;5108411;28;20438;-77
2022/04/04 11:52:44;;;;;;;6.20;3.43;;;7.10;99.90;;;;;;5021207;28;20042;-75
2022/04/04 11:55:13;;;;;;;3.70;2.80;;;7.10;99.90;;;;;;5019425;28;20470;-76
2022/04/04 11:57:39;;;;;;;5.73;2.80;;;7.10;99.90;;;;;;5024159;28;20056;-75
2022/04/04 12:00:12;;;;;;;5.67;3.00;;;7.10;99.90;;;;;;5020677;28;20587;-76
2022/04/04 12:02:38;;;;;;;3.95;2.90;;;7.20;99.90;;;;;;5005127;28;20407;-76
2022/04/04 12:05:06;;;;;;;3.23;2.43;;;7.20;99.90;;;;;;5005901;28;20104;-75
2022/04/04 12:07:33;;;;;;;3.90;2.40;;;7.20;99.90;;;;;;5022999;28;20052;-75
2022/04/04 12:10:01;;;;;;;4.00;2.47;;;7.30;99.90;;;;;;5008628;28;20041;-75
2022/04/04 12:12:28;;;;;;;4.30;2.50;;;7.30;99.90;;;;;;5025066;28;20037;-76
2022/04/04 12:14:54;;;;;;;4.93;2.20;;;7.30;99.90;;;;;;5020038;28;20045;-75
2022/04/04 12:17:24;;;;;;;2.57;2.03;;;7.40;99.90;;;;;;5018825;28;20048;-77
2022/04/04 12:19:52;;;;;;;4.80;2.17;;;7.40;99.90;;;;;;5021692;28;20082;-77
2022/04/04 12:25:05;;;;;;;3.17;2.33;;;7.40;99.90;;;;;;5006731;28;20056;-78
2022/04/04 12:27:31;;;;;;;3.77;2.47;;;7.40;99.90;;;;;;5022215;28;20517;-75
2022/04/04 12:29:59;;;;;;;3.30;2.47;;;7.40;99.90;;;;;;5020944;28;20683;-76
2022/04/04 12:32:31;;;;;;;4.83;2.80;;;7.50;99.90;;;;;;5036004;28;20045;-77
2022/04/04 12:34:59;;;;;;;2.93;2.47;;;7.50;99.90;;;;;;5005944;28;20144;-76
2022/04/04 12:37:33;;;;;;;6.00;2.80;;;7.60;99.90;;;;;;5005917;28;20252;-76
2022/04/04 12:40:16;;;;;;;4.60;2.33;;;7.60;99.90;;;;;;5006556;28;20084;-76
2022/04/04 12:42:43;;;;;;;3.50;2.13;;;7.60;99.90;;;;;;5025403;28;20045;-76
2022/04/04 12:45:12;;;;;;;2.47;1.83;;;7.60;99.90;;;;;;5023901;28;20041;-76
2022/04/04 12:47:57;;;;;;;3.40;2.00;;;7.60;99.90;;;;;;5007726;28;20129;-77
2022/04/04 12:50:25;;;;;;;3.13;2.00;;;7.70;99.90;;;;;;5007060;28;20056;-77
2022/04/04 13:09:26;;;;;;;2.13;1.60;;;7.70;99.90;;;;;;5115622;27;20396;-76
2022/04/04 13:11:55;;;;;;;2.33;1.70;;;8.20;99.90;;;;;;5101943;28;20044;-76
2022/04/04 13:14:22;;;;;;;1.67;1.50;;;8.10;99.90;;;;;;5048560;28;20043;-76